sensor_id;sensor_type;location;lat;lon;timestamp;temperature;humidity
12817;DHT22;6473;51.552;6.716;2023-02-15T00:00:19;4.70;99.90
12817;DHT22;6473;51.552;6.716;2023-02-15T00:02:46;4.80;99.90
12817;DHT22;6473;51.552;6.716;2023-02-15T00:05:15;4.70;99.90
12817;DHT22;6473;51.552;6.716;2023-02-15T00:07:41;4.70;99.90
12817;DHT22;6473;51.552;6.716;2023-02-15T00:10:09;4.70;99.90
12817;DHT22;6473;51.552;6.716;2023-02-15T00:12:37;4.60;99.90
12817;DHT22;6473;51.552;6.716;2023-02-15T00:15:05;4.70;99.90
12817;DHT22;6473;51.552;6.716;2023-02-15T00:17:31;4.70;99.90
12817;DHT22;6473;51.552;6.716;2023-02-15T00:19:58;4.60;99.90
12817;DHT22;6473;51.552;6.716;2023-02-15T00:22:27;4.60;99.90
12817;DHT22;6473;51.552;6.716;2023-02-15T00:24:54;4.60;99.90
12817;DHT22;6473;51.552;6.716;2023-02-15T00:27:21;4.60;99.90
12817;DHT22;6473;51.552;6.716;2023-02-15T00:29:48;4.60;99.90
12817;DHT22;6473;51.552;6.716;2023-02-15T00:32:15;4.50;99.90
12817;DHT22;6473;51.552;6.716;2023-02-15T00:34:41;4.60;99.90
12817;DHT22;6473;51.552;6.716;2023-02-15T00:37:08;4.60;99.90
12817;DHT22;6473;51.552;6.716;2023-02-15T00:39:37;4.50;99.90
12817;DHT22;6473;51.552;6.716;2023-02-15T00:42:05;4.60;99.90
12817;DHT22;6473;51.552;6.716;2023-02-15T00:46:59;4.50;99.90
12817;DHT22;6473;51.552;6.716;2023-02-15T00:49:26;4.50;99.90
12817;DHT22;6473;51.552;6.716;2023-02-15T00:51:53;4.60;99.90
12817;DHT22;6473;51.552;6.716;2023-02-15T00:56:50;4.60;99.90
12817;DHT22;6473;51.552;6.716;2023-02-15T00:59:17;4.60;99.90
12817;DHT22;6473;51.552;6.716;2023-02-15T01:01:44;4.60;99.90
12817;DHT22;6473;51.552;6.716;2023-02-15T01:06:38;4.50;99.90
12817;DHT22;6473;51.552;6.716;2023-02-15T01:09:05;4.40;99.90
12817;DHT22;6473;51.552;6.716;2023-02-15T01:11:32;4.30;99.90
12817;DHT22;6473;51.552;6.716;2023-02-15T01:16:29;4.30;99.90
12817;DHT22;6473;51.552;6.716;2023-02-15T01:18:56;4.30;99.90
12817;DHT22;6473;51.552;6.716;2023-02-15T01:21:26;4.40;99.90
12817;DHT22;6473;51.552;6.716;2023-02-15T01:23:53;4.40;99.90
12817;DHT22;6473;51.552;6.716;2023-02-15T01:26:20;4.40;99.90
12817;DHT22;6473;51.552;6.716;2023-02-15T01:28:47;4.50;99.90
12817;DHT22;6473;51.552;6.716;2023-02-15T01:31:19;4.40;99.90
12817;DHT22;6473;51.552;6.716;2023-02-15T01:33:47;4.30;99.90
12817;DHT22;6473;51.552;6.716;2023-02-15T01:36:14;4.40;99.90
12817;DHT22;6473;51.552;6.716;2023-02-15T01:38:42;4.40;99.90
12817;DHT22;6473;51.552;6.716;2023-02-15T01:41:09;4.30;99.90
12817;DHT22;6473;51.552;6.716;2023-02-15T01:43:55;4.30;99.90
12817;DHT22;6473;51.552;6.716;2023-02-15T01:46:27;4.30;99.90
12817;DHT22;6473;51.552;6.716;2023-02-15T01:49:01;4.30;99.90
12817;DHT22;6473;51.552;6.716;2023-02-15T01:51:31;4.30;99.90
12817;DHT22;6473;51.552;6.716;2023-02-15T01:54:04;4.20;99.90
12817;DHT22;6473;51.552;6.716;2023-02-15T01:56:36;4.20;99.90
12817;DHT22;6473;51.552;6.716;2023-02-15T01:59:07;4.10;99.90
12817;DHT22;6473;51.552;6.716;2023-02-15T02:01:37;4.10;99.90
12817;DHT22;6473;51.552;6.716;2023-02-15T02:04:09;4.10;99.90
12817;DHT22;6473;51.552;6.716;2023-02-15T02:09:08;4.10;99.90
12817;DHT22;6473;51.552;6.716;2023-02-15T02:11:35;4.00;99.90
12817;DHT22;6473;51.552;6.716;2023-02-15T02:14:03;4.00;99.90
12817;DHT22;6473;51.552;6.716;2023-02-15T02:16:35;3.90;99.90
12817;DHT22;6473;51.552;6.716;2023-02-15T02:19:28;3.90;99.90
12817;DHT22;6473;51.552;6.716;2023-02-15T02:25:30;3.80;99.90
12817;DHT22;6473;51.552;6.716;2023-02-15T02:28:09;3.80;99.90
12817;DHT22;6473;51.552;6.716;2023-02-15T02:30:53;3.70;99.90
12817;DHT22;6473;51.552;6.716;2023-02-15T02:33:55;3.60;99.90
12817;DHT22;6473;51.552;6.716;2023-02-15T02:36:33;3.60;99.90
12817;DHT22;6473;51.552;6.716;2023-02-15T02:39:12;3.50;99.90
12817;DHT22;6473;51.552;6.716;2023-02-15T02:41:47;3.50;99.90
12817;DHT22;6473;51.552;6.716;2023-02-15T02:44:23;3.50;99.90
12817;DHT22;6473;51.552;6.716;2023-02-15T02:46:54;3.50;99.90
12817;DHT22;6473;51.552;6.716;2023-02-15T02:49:32;3.50;99.90
12817;DHT22;6473;51.552;6.716;2023-02-15T02:52:01;3.50;99.90
12817;DHT22;6473;51.552;6.716;2023-02-15T02:54:29;3.50;99.90
12817;DHT22;6473;51.552;6.716;2023-02-15T02:57:00;3.50;99.90
12817;DHT22;6473;51.552;6.716;2023-02-15T02:59:31;3.40;99.90
12817;DHT22;6473;51.552;6.716;2023-02-15T03:02:04;3.40;99.90
12817;DHT22;6473;51.552;6.716;2023-02-15T03:04:37;3.30;99.90
12817;DHT22;6473;51.552;6.716;2023-02-15T03:07:06;3.30;99.90
12817;DHT22;6473;51.552;6.716;2023-02-15T03:09:36;3.20;99.90
12817;DHT22;6473;51.552;6.716;2023-02-15T03:12:09;3.10;99.90
12817;DHT22;6473;51.552;6.716;2023-02-15T03:14:42;3.10;99.90
12817;DHT22;6473;51.552;6.716;2023-02-15T03:17:12;3.10;99.90
12817;DHT22;6473;51.552;6.716;2023-02-15T03:19:43;3.00;99.90
12817;DHT22;6473;51.552;6.716;2023-02-15T03:22:14;3.00;99.90
12817;DHT22;6473;51.552;6.716;2023-02-15T03:24:44;3.00;99.90
12817;DHT22;6473;51.552;6.716;2023-02-15T03:27:16;3.00;99.90
12817;DHT22;6473;51.552;6.716;2023-02-15T03:29:46;2.90;99.90
12817;DHT22;6473;51.552;6.716;2023-02-15T03:32:15;2.80;99.90
12817;DHT22;6473;51.552;6.716;2023-02-15T03:34:44;2.70;99.90
12817;DHT22;6473;51.552;6.716;2023-02-15T03:37:14;2.70;99.90
12817;DHT22;6473;51.552;6.716;2023-02-15T03:39:48;2.60;99.90
12817;DHT22;6473;51.552;6.716;2023-02-15T03:42:22;2.50;99.90
12817;DHT22;6473;51.552;6.716;2023-02-15T03:44:54;2.40;99.90
12817;DHT22;6473;51.552;6.716;2023-02-15T03:47:26;2.40;99.90
12817;DHT22;6473;51.552;6.716;2023-02-15T03:50:00;2.20;99.90
12817;DHT22;6473;51.552;6.716;2023-02-15T03:52:29;2.10;99.90
12817;DHT22;6473;51.552;6.716;2023-02-15T03:54:56;2.10;99.90
12817;DHT22;6473;51.552;6.716;2023-02-15T03:57:26;2.30;99.90
12817;DHT22;6473;51.552;6.716;2023-02-15T04:00:15;2.60;99.90
12817;DHT22;6473;51.552;6.716;2023-02-15T04:03:21;2.90;99.90
12817;DHT22;6473;51.552;6.716;2023-02-15T04:08:18;3.20;99.90
12817;DHT22;6473;51.552;6.716;2023-02-15T04:10:45;3.30;99.90
12817;DHT22;6473;51.552;6.716;2023-02-15T04:13:22;3.30;99.90
12817;DHT22;6473;51.552;6.716;2023-02-15T04:15:49;3.20;99.90
12817;DHT22;6473;51.552;6.716;2023-02-15T04:18:30;3.20;99.90
12817;DHT22;6473;51.552;6.716;2023-02-15T04:21:16;3.10;99.90
12817;DHT22;6473;51.552;6.716;2023-02-15T04:24:00;3.10;99.90
12817;DHT22;6473;51.552;6.716;2023-02-15T04:26:45;3.00;99.90
12817;DHT22;6473;51.552;6.716;2023-02-15T04:29:13;2.90;99.90
12817;DHT22;6473;51.552;6.716;2023-02-15T04:31:40;2.90;99.90
12817;DHT22;6473;51.552;6.716;2023-02-15T04:34:08;2.90;99.90
12817;DHT22;6473;51.552;6.716;2023-02-15T04:36:36;2.90;99.90
12817;DHT22;6473;51.552;6.716;2023-02-15T04:39:04;3.00;99.90
12817;DHT22;6473;51.552;6.716;2023-02-15T04:46:26;2.90;99.90
12817;DHT22;6473;51.552;6.716;2023-02-15T04:48:54;2.80;99.90
12817;DHT22;6473;51.552;6.716;2023-02-15T04:51:21;2.80;99.90
12817;DHT22;6473;51.552;6.716;2023-02-15T04:53:50;2.60;99.90
12817;DHT22;6473;51.552;6.716;2023-02-15T04:56:18;2.70;99.90
12817;DHT22;6473;51.552;6.716;2023-02-15T04:58:45;2.60;99.90
12817;DHT22;6473;51.552;6.716;2023-02-15T05:01:12;2.60;99.90
12817;DHT22;6473;51.552;6.716;2023-02-15T05:03:39;2.60;99.90
12817;DHT22;6473;51.552;6.716;2023-02-15T05:08:33;2.60;99.90
12817;DHT22;6473;51.552;6.716;2023-02-15T05:13:29;2.50;99.90
12817;DHT22;6473;51.552;6.716;2023-02-15T05:15:56;2.50;99.90
12817;DHT22;6473;51.552;6.716;2023-02-15T05:18:23;2.50;99.90
12817;DHT22;6473;51.552;6.716;2023-02-15T05:20:50;2.50;99.90
12817;DHT22;6473;51.552;6.716;2023-02-15T05:23:17;2.40;99.90
12817;DHT22;6473;51.552;6.716;2023-02-15T05:25:47;2.40;99.90
12817;DHT22;6473;51.552;6.716;2023-02-15T05:28:47;2.40;99.90
12817;DHT22;6473;51.552;6.716;2023-02-15T05:31:15;2.40;99.90
12817;DHT22;6473;51.552;6.716;2023-02-15T05:33:44;2.40;99.90
12817;DHT22;6473;51.552;6.716;2023-02-15T05:36:11;2.40;99.90
12817;DHT22;6473;51.552;6.716;2023-02-15T05:38:38;2.40;99.90
12817;DHT22;6473;51.552;6.716;2023-02-15T05:41:05;2.40;99.90
12817;DHT22;6473;51.552;6.716;2023-02-15T05:43:33;2.40;99.90
12817;DHT22;6473;51.552;6.716;2023-02-15T05:46:01;2.30;99.90
12817;DHT22;6473;51.552;6.716;2023-02-15T05:48:28;2.30;99.90
12817;DHT22;6473;51.552;6.716;2023-02-15T05:50:59;2.40;99.90
12817;DHT22;6473;51.552;6.716;2023-02-15T05:53:26;2.40;99.90
12817;DHT22;6473;51.552;6.716;2023-02-15T05:55:54;2.40;99.90
12817;DHT22;6473;51.552;6.716;2023-02-15T05:58:24;2.30;99.90
12817;DHT22;6473;51.552;6.716;2023-02-15T06:00:52;2.30;99.90
12817;DHT22;6473;51.552;6.716;2023-02-15T06:05:48;2.30;99.90
12817;DHT22;6473;51.552;6.716;2023-02-15T06:08:15;2.30;99.90
12817;DHT22;6473;51.552;6.716;2023-02-15T06:10:41;2.20;99.90
12817;DHT22;6473;51.552;6.716;2023-02-15T06:13:09;2.20;99.90
12817;DHT22;6473;51.552;6.716;2023-02-15T06:15:35;2.20;99.90
12817;DHT22;6473;51.552;6.716;2023-02-15T06:18:02;2.20;99.90
12817;DHT22;6473;51.552;6.716;2023-02-15T06:20:31;2.20;99.90
12817;DHT22;6473;51.552;6.716;2023-02-15T06:22:58;2.20;99.90
12817;DHT22;6473;51.552;6.716;2023-02-15T06:25:25;2.20;99.90
12817;DHT22;6473;51.552;6.716;2023-02-15T06:27:51;2.20;99.90
12817;DHT22;6473;51.552;6.716;2023-02-15T06:30:18;2.20;99.90
12817;DHT22;6473;51.552;6.716;2023-02-15T06:32:45;2.20;99.90
12817;DHT22;6473;51.552;6.716;2023-02-15T06:42:36;2.30;99.90
12817;DHT22;6473;51.552;6.716;2023-02-15T06:45:03;2.40;99.90
12817;DHT22;6473;51.552;6.716;2023-02-15T06:47:30;2.40;99.90
12817;DHT22;6473;51.552;6.716;2023-02-15T06:49:57;2.50;99.90
12817;DHT22;6473;51.552;6.716;2023-02-15T06:52:24;2.50;99.90
12817;DHT22;6473;51.552;6.716;2023-02-15T06:57:19;2.70;99.90
12817;DHT22;6473;51.552;6.716;2023-02-15T06:59:46;2.90;99.90
12817;DHT22;6473;51.552;6.716;2023-02-15T07:02:13;2.90;99.90
12817;DHT22;6473;51.552;6.716;2023-02-15T07:04:41;2.90;99.90
12817;DHT22;6473;51.552;6.716;2023-02-15T07:07:08;3.10;99.90
12817;DHT22;6473;51.552;6.716;2023-02-15T08:33:42;4.90;99.90
12817;DHT22;6473;51.552;6.716;2023-02-15T08:51:04;5.90;99.90
12817;DHT22;6473;51.552;6.716;2023-02-15T09:35:20;7.70;99.90
12817;DHT22;6473;51.552;6.716;2023-02-15T09:40:16;7.70;99.60
12817;DHT22;6473;51.552;6.716;2023-02-15T09:51:11;7.70;98.50
12817;DHT22;6473;51.552;6.716;2023-02-15T09:54:03;7.70;98.00
12817;DHT22;6473;51.552;6.716;2023-02-15T09:56:39;8.00;98.40
12817;DHT22;6473;51.552;6.716;2023-02-15T09:59:13;8.40;96.80
12817;DHT22;6473;51.552;6.716;2023-02-15T10:01:55;8.40;93.10
12817;DHT22;6473;51.552;6.716;2023-02-15T10:04:49;8.30;94.10
12817;DHT22;6473;51.552;6.716;2023-02-15T10:07:31;7.00;96.70
12817;DHT22;6473;51.552;6.716;2023-02-15T10:10:11;8.60;94.50
12817;DHT22;6473;51.552;6.716;2023-02-15T10:12:56;8.50;95.00
12817;DHT22;6473;51.552;6.716;2023-02-15T10:15:36;8.60;92.30
12817;DHT22;6473;51.552;6.716;2023-02-15T10:18:37;8.80;90.90
12817;DHT22;6473;51.552;6.716;2023-02-15T10:21:16;8.80;91.50
12817;DHT22;6473;51.552;6.716;2023-02-15T10:24:04;8.60;92.70
12817;DHT22;6473;51.552;6.716;2023-02-15T10:26:41;8.60;90.70
12817;DHT22;6473;51.552;6.716;2023-02-15T10:29:15;8.80;90.00
12817;DHT22;6473;51.552;6.716;2023-02-15T10:31:50;8.80;90.20
12817;DHT22;6473;51.552;6.716;2023-02-15T10:34:20;9.10;87.60
12817;DHT22;6473;51.552;6.716;2023-02-15T10:37:03;9.40;83.50
12817;DHT22;6473;51.552;6.716;2023-02-15T10:39:43;9.70;75.40
12817;DHT22;6473;51.552;6.716;2023-02-15T10:42:16;10.30;72.40
12817;DHT22;6473;51.552;6.716;2023-02-15T10:44:57;10.70;61.10
12817;DHT22;6473;51.552;6.716;2023-02-15T10:50:21;11.80;34.80
12817;DHT22;6473;51.552;6.716;2023-02-15T10:55:45;11.40;36.40
12817;DHT22;6473;51.552;6.716;2023-02-15T10:58:19;11.70;32.90
12817;DHT22;6473;51.552;6.716;2023-02-15T11:00:54;12.30;22.70
12817;DHT22;6473;51.552;6.716;2023-02-15T11:06:04;10.70;46.40
12817;DHT22;6473;51.552;6.716;2023-02-15T11:08:35;10.40;54.90
12817;DHT22;6473;51.552;6.716;2023-02-15T11:16:03;12.80;16.60
12817;DHT22;6473;51.552;6.716;2023-02-15T11:18:34;12.30;25.40
12817;DHT22;6473;51.552;6.716;2023-02-15T11:26:03;14.20;1.00
12817;DHT22;6473;51.552;6.716;2023-02-15T11:28:34;14.40;1.00
12817;DHT22;6473;51.552;6.716;2023-02-15T11:31:12;14.40;1.00
12817;DHT22;6473;51.552;6.716;2023-02-15T11:33:44;14.80;1.00
12817;DHT22;6473;51.552;6.716;2023-02-15T11:36:15;13.70;1.00
12817;DHT22;6473;51.552;6.716;2023-02-15T11:38:44;13.00;2.30
12817;DHT22;6473;51.552;6.716;2023-02-15T11:43:51;12.40;16.20
12817;DHT22;6473;51.552;6.716;2023-02-15T11:51:18;13.60;4.50
12817;DHT22;6473;51.552;6.716;2023-02-15T11:53:47;13.40;2.70
12817;DHT22;6473;51.552;6.716;2023-02-15T11:58:44;14.10;1.00
12817;DHT22;6473;51.552;6.716;2023-02-15T12:03:46;13.80;1.00
12817;DHT22;6473;51.552;6.716;2023-02-15T12:08:53;14.00;1.00
12817;DHT22;6473;51.552;6.716;2023-02-15T12:23:56;14.30;1.00
12817;DHT22;6473;51.552;6.716;2023-02-15T12:28:52;14.00;1.00
12817;DHT22;6473;51.552;6.716;2023-02-15T12:31:21;14.20;1.00
12817;DHT22;6473;51.552;6.716;2023-02-15T12:36:20;14.70;1.00
12817;DHT22;6473;51.552;6.716;2023-02-15T12:39:17;15.20;1.00
12817;DHT22;6473;51.552;6.716;2023-02-15T12:41:46;16.00;1.00
12817;DHT22;6473;51.552;6.716;2023-02-15T12:44:24;15.90;1.00
12817;DHT22;6473;51.552;6.716;2023-02-15T12:46:57;15.40;1.00
12817;DHT22;6473;51.552;6.716;2023-02-15T12:51:53;14.70;1.00
12817;DHT22;6473;51.552;6.716;2023-02-15T12:54:36;14.70;1.00
12817;DHT22;6473;51.552;6.716;2023-02-15T12:59:58;15.50;1.00
12817;DHT22;6473;51.552;6.716;2023-02-15T13:02:33;16.40;1.00
12817;DHT22;6473;51.552;6.716;2023-02-15T13:05:14;16.70;1.00
12817;DHT22;6473;51.552;6.716;2023-02-15T13:07:49;17.70;1.00
12817;DHT22;6473;51.552;6.716;2023-02-15T14:14:29;18.00;1.00
12817;DHT22;6473;51.552;6.716;2023-02-15T14:32:24;16.00;1.00
12817;DHT22;6473;51.552;6.716;2023-02-15T15:39:18;14.00;1.00
12817;DHT22;6473;51.552;6.716;2023-02-15T15:41:53;13.70;1.00
12817;DHT22;6473;51.552;6.716;2023-02-15T15:47:34;13.40;1.00
12817;DHT22;6473;51.552;6.716;2023-02-15T15:50:12;13.20;1.00
12817;DHT22;6473;51.552;6.716;2023-02-15T15:55:17;12.80;6.40
12817;DHT22;6473;51.552;6.716;2023-02-15T15:57:47;12.80;10.90
12817;DHT22;6473;51.552;6.716;2023-02-15T16:15:25;12.10;21.20
12817;DHT22;6473;51.552;6.716;2023-02-15T16:17:59;12.10;22.30
12817;DHT22;6473;51.552;6.716;2023-02-15T16:20:29;12.00;20.00
12817;DHT22;6473;51.552;6.716;2023-02-15T16:23:07;11.90;23.70
12817;DHT22;6473;51.552;6.716;2023-02-15T16:25:49;11.90;26.70
12817;DHT22;6473;51.552;6.716;2023-02-15T16:28:28;11.70;26.60
12817;DHT22;6473;51.552;6.716;2023-02-15T16:33:37;11.50;33.70
12817;DHT22;6473;51.552;6.716;2023-02-15T16:41:59;11.30;44.00
12817;DHT22;6473;51.552;6.716;2023-02-15T16:46:58;11.10;52.10
12817;DHT22;6473;51.552;6.716;2023-02-15T16:49:32;11.00;57.30
12817;DHT22;6473;51.552;6.716;2023-02-15T16:52:06;11.00;60.10
12817;DHT22;6473;51.552;6.716;2023-02-15T16:54:42;11.00;62.50
12817;DHT22;6473;51.552;6.716;2023-02-15T16:59:47;10.90;67.50
12817;DHT22;6473;51.552;6.716;2023-02-15T17:02:25;10.90;69.10
12817;DHT22;6473;51.552;6.716;2023-02-15T17:05:13;10.80;71.70
12817;DHT22;6473;51.552;6.716;2023-02-15T17:07:52;10.70;74.80
12817;DHT22;6473;51.552;6.716;2023-02-15T17:10:32;10.60;77.50
12817;DHT22;6473;51.552;6.716;2023-02-15T17:13:10;10.60;79.70
12817;DHT22;6473;51.552;6.716;2023-02-15T17:15:40;10.60;81.60
12817;DHT22;6473;51.552;6.716;2023-02-15T17:26:00;10.40;88.00
12817;DHT22;6473;51.552;6.716;2023-02-15T17:28:46;10.40;88.60
12817;DHT22;6473;51.552;6.716;2023-02-15T17:31:24;10.40;90.00
12817;DHT22;6473;51.552;6.716;2023-02-15T17:33:54;10.40;90.60
12817;DHT22;6473;51.552;6.716;2023-02-15T17:36:24;10.40;90.90
12817;DHT22;6473;51.552;6.716;2023-02-15T17:39:04;10.30;91.20
12817;DHT22;6473;51.552;6.716;2023-02-15T17:41:33;10.30;91.30
12817;DHT22;6473;51.552;6.716;2023-02-15T17:44:02;10.30;91.40
12817;DHT22;6473;51.552;6.716;2023-02-15T17:46:33;10.20;91.50
12817;DHT22;6473;51.552;6.716;2023-02-15T17:49:01;10.30;91.80
12817;DHT22;6473;51.552;6.716;2023-02-15T17:53:56;10.30;91.70
12817;DHT22;6473;51.552;6.716;2023-02-15T17:56:52;10.30;92.10
12817;DHT22;6473;51.552;6.716;2023-02-15T18:10:25;6.60;92.80
12817;DHT22;6473;51.552;6.716;2023-02-15T18:26:51;10.00;93.90
12817;DHT22;6473;51.552;6.716;2023-02-15T18:31:54;10.00;94.20
12817;DHT22;6473;51.552;6.716;2023-02-15T18:35:27;9.90;94.60
12817;DHT22;6473;51.552;6.716;2023-02-15T18:42:20;9.90;94.80
12817;DHT22;6473;51.552;6.716;2023-02-15T18:44:47;9.90;95.10
12817;DHT22;6473;51.552;6.716;2023-02-15T18:47:15;10.00;95.20
12817;DHT22;6473;51.552;6.716;2023-02-15T18:52:13;9.90;95.30
12817;DHT22;6473;51.552;6.716;2023-02-15T18:57:09;9.80;96.40
12817;DHT22;6473;51.552;6.716;2023-02-15T18:59:38;9.80;96.60
12817;DHT22;6473;51.552;6.716;2023-02-15T19:02:10;9.70;96.70
12817;DHT22;6473;51.552;6.716;2023-02-15T19:04:39;9.60;97.10
12817;DHT22;6473;51.552;6.716;2023-02-15T19:07:11;9.60;98.00
12817;DHT22;6473;51.552;6.716;2023-02-15T19:09:40;9.50;98.40
12817;DHT22;6473;51.552;6.716;2023-02-15T19:12:11;9.40;99.40
12817;DHT22;6473;51.552;6.716;2023-02-15T19:17:13;9.30;99.90
12817;DHT22;6473;51.552;6.716;2023-02-15T19:19:41;9.20;99.90
12817;DHT22;6473;51.552;6.716;2023-02-15T19:22:12;9.20;99.90
12817;DHT22;6473;51.552;6.716;2023-02-15T19:24:41;9.10;99.90
12817;DHT22;6473;51.552;6.716;2023-02-15T19:27:18;9.00;99.90
12817;DHT22;6473;51.552;6.716;2023-02-15T19:29:47;8.90;99.90
12817;DHT22;6473;51.552;6.716;2023-02-15T19:32:15;8.90;99.90
12817;DHT22;6473;51.552;6.716;2023-02-15T19:34:43;8.90;99.90
12817;DHT22;6473;51.552;6.716;2023-02-15T19:37:19;8.90;99.90
12817;DHT22;6473;51.552;6.716;2023-02-15T19:39:48;8.90;99.90
12817;DHT22;6473;51.552;6.716;2023-02-15T19:42:17;8.90;99.90
12817;DHT22;6473;51.552;6.716;2023-02-15T19:44:45;8.90;99.90
12817;DHT22;6473;51.552;6.716;2023-02-15T19:47:12;8.90;99.90
12817;DHT22;6473;51.552;6.716;2023-02-15T19:49:39;8.90;99.90
12817;DHT22;6473;51.552;6.716;2023-02-15T19:52:14;8.90;99.90
12817;DHT22;6473;51.552;6.716;2023-02-15T19:54:41;8.90;99.90
12817;DHT22;6473;51.552;6.716;2023-02-15T19:57:10;8.80;99.90
12817;DHT22;6473;51.552;6.716;2023-02-15T19:59:37;8.80;99.90
12817;DHT22;6473;51.552;6.716;2023-02-15T20:02:04;8.80;99.90
12817;DHT22;6473;51.552;6.716;2023-02-15T20:04:31;8.80;99.90
12817;DHT22;6473;51.552;6.716;2023-02-15T20:07:00;8.60;99.90
12817;DHT22;6473;51.552;6.716;2023-02-15T20:09:31;8.60;99.90
12817;DHT22;6473;51.552;6.716;2023-02-15T20:11:59;8.50;99.90
12817;DHT22;6473;51.552;6.716;2023-02-15T20:14:26;8.50;99.90
12817;DHT22;6473;51.552;6.716;2023-02-15T20:19:20;8.30;99.90
12817;DHT22;6473;51.552;6.716;2023-02-15T20:21:48;8.30;99.90
12817;DHT22;6473;51.552;6.716;2023-02-15T20:24:20;8.30;99.90
12817;DHT22;6473;51.552;6.716;2023-02-15T20:26:49;8.20;99.90
12817;DHT22;6473;51.552;6.716;2023-02-15T20:29:17;8.10;99.90
12817;DHT22;6473;51.552;6.716;2023-02-15T20:31:44;8.10;99.90
12817;DHT22;6473;51.552;6.716;2023-02-15T20:34:11;8.00;99.90
12817;DHT22;6473;51.552;6.716;2023-02-15T20:36:39;7.70;99.90
12817;DHT22;6473;51.552;6.716;2023-02-15T20:39:12;8.00;99.90
12817;DHT22;6473;51.552;6.716;2023-02-15T20:41:39;7.90;99.90
12817;DHT22;6473;51.552;6.716;2023-02-15T20:44:20;7.90;99.90
12817;DHT22;6473;51.552;6.716;2023-02-15T20:46:48;7.90;99.90
12817;DHT22;6473;51.552;6.716;2023-02-15T20:49:15;7.80;99.90
12817;DHT22;6473;51.552;6.716;2023-02-15T20:51:42;7.70;99.90
12817;DHT22;6473;51.552;6.716;2023-02-15T20:54:12;7.70;99.90
12817;DHT22;6473;51.552;6.716;2023-02-15T20:56:40;7.80;99.90
12817;DHT22;6473;51.552;6.716;2023-02-15T20:59:22;7.70;99.90
12817;DHT22;6473;51.552;6.716;2023-02-15T21:01:50;7.70;99.90
12817;DHT22;6473;51.552;6.716;2023-02-15T21:04:27;7.70;99.90
12817;DHT22;6473;51.552;6.716;2023-02-15T21:09:22;7.70;99.90
12817;DHT22;6473;51.552;6.716;2023-02-15T21:11:50;7.70;99.90
12817;DHT22;6473;51.552;6.716;2023-02-15T21:14:18;7.70;99.90
12817;DHT22;6473;51.552;6.716;2023-02-15T21:16:47;7.80;99.90
12817;DHT22;6473;51.552;6.716;2023-02-15T21:19:16;7.70;99.90
12817;DHT22;6473;51.552;6.716;2023-02-15T21:21:46;7.70;99.90
12817;DHT22;6473;51.552;6.716;2023-02-15T21:24:14;7.80;99.90
12817;DHT22;6473;51.552;6.716;2023-02-15T21:26:44;7.80;99.90
12817;DHT22;6473;51.552;6.716;2023-02-15T21:29:16;7.80;99.90
12817;DHT22;6473;51.552;6.716;2023-02-15T21:31:43;7.80;99.90
12817;DHT22;6473;51.552;6.716;2023-02-15T21:34:12;7.80;99.90
12817;DHT22;6473;51.552;6.716;2023-02-15T21:36:40;7.80;99.90
12817;DHT22;6473;51.552;6.716;2023-02-15T21:39:13;7.90;99.90
12817;DHT22;6473;51.552;6.716;2023-02-15T21:41:43;7.90;99.90
12817;DHT22;6473;51.552;6.716;2023-02-15T21:44:28;7.70;99.90
12817;DHT22;6473;51.552;6.716;2023-02-15T21:47:17;7.70;99.90
12817;DHT22;6473;51.552;6.716;2023-02-15T21:50:04;7.60;99.90
12817;DHT22;6473;51.552;6.716;2023-02-15T21:52:45;7.60;99.90
12817;DHT22;6473;51.552;6.716;2023-02-15T21:55:13;7.40;99.90
12817;DHT22;6473;51.552;6.716;2023-02-15T21:57:40;7.30;99.90
12817;DHT22;6473;51.552;6.716;2023-02-15T22:00:13;7.20;99.90
12817;DHT22;6473;51.552;6.716;2023-02-15T22:02:41;7.20;99.90
12817;DHT22;6473;51.552;6.716;2023-02-15T22:05:14;7.10;99.90
12817;DHT22;6473;51.552;6.716;2023-02-15T22:07:42;7.10;99.90
12817;DHT22;6473;51.552;6.716;2023-02-15T22:10:09;7.10;99.90
12817;DHT22;6473;51.552;6.716;2023-02-15T22:12:36;7.10;99.90
12817;DHT22;6473;51.552;6.716;2023-02-15T22:15:04;7.00;99.90
12817;DHT22;6473;51.552;6.716;2023-02-15T22:17:31;7.00;99.90
12817;DHT22;6473;51.552;6.716;2023-02-15T22:19:59;6.90;99.90
12817;DHT22;6473;51.552;6.716;2023-02-15T22:22:27;7.10;99.90
12817;DHT22;6473;51.552;6.716;2023-02-15T22:24:55;7.10;99.90
12817;DHT22;6473;51.552;6.716;2023-02-15T22:27:23;7.00;99.90
12817;DHT22;6473;51.552;6.716;2023-02-15T22:29:51;7.00;99.90
12817;DHT22;6473;51.552;6.716;2023-02-15T22:32:20;7.00;99.90
12817;DHT22;6473;51.552;6.716;2023-02-15T22:34:47;7.00;99.90
12817;DHT22;6473;51.552;6.716;2023-02-15T22:37:14;7.00;99.90
12817;DHT22;6473;51.552;6.716;2023-02-15T22:39:43;7.00;99.90
12817;DHT22;6473;51.552;6.716;2023-02-15T22:42:20;7.00;99.90
12817;DHT22;6473;51.552;6.716;2023-02-15T22:44:49;7.00;99.90
12817;DHT22;6473;51.552;6.716;2023-02-15T22:47:19;7.00;99.90
12817;DHT22;6473;51.552;6.716;2023-02-15T22:49:46;6.90;99.90
12817;DHT22;6473;51.552;6.716;2023-02-15T22:52:14;6.90;99.90
12817;DHT22;6473;51.552;6.716;2023-02-15T22:57:15;7.00;99.90
12817;DHT22;6473;51.552;6.716;2023-02-15T22:59:44;7.10;99.90
12817;DHT22;6473;51.552;6.716;2023-02-15T23:02:14;7.00;99.90
12817;DHT22;6473;51.552;6.716;2023-02-15T23:04:42;7.10;99.90
12817;DHT22;6473;51.552;6.716;2023-02-15T23:07:13;7.20;99.90
12817;DHT22;6473;51.552;6.716;2023-02-15T23:09:40;7.20;99.90
12817;DHT22;6473;51.552;6.716;2023-02-15T23:12:22;7.20;99.90
12817;DHT22;6473;51.552;6.716;2023-02-15T23:14:49;7.50;99.90
12817;DHT22;6473;51.552;6.716;2023-02-15T23:17:16;7.50;99.90
12817;DHT22;6473;51.552;6.716;2023-02-15T23:19:43;7.50;99.90
12817;DHT22;6473;51.552;6.716;2023-02-15T23:22:12;10.30;99.90
12817;DHT22;6473;51.552;6.716;2023-02-15T23:24:40;7.50;99.90
12817;DHT22;6473;51.552;6.716;2023-02-15T23:27:16;7.50;99.90
12817;DHT22;6473;51.552;6.716;2023-02-15T23:30:02;7.50;99.90
12817;DHT22;6473;51.552;6.716;2023-02-15T23:32:30;7.50;99.90
12817;DHT22;6473;51.552;6.716;2023-02-15T23:37:24;7.50;99.90
12817;DHT22;6473;51.552;6.716;2023-02-15T23:39:51;7.50;99.90
12817;DHT22;6473;51.552;6.716;2023-02-15T23:42:36;7.50;99.90
12817;DHT22;6473;51.552;6.716;2023-02-15T23:45:21;7.50;99.90
12817;DHT22;6473;51.552;6.716;2023-02-15T23:47:48;7.40;99.90
12817;DHT22;6473;51.552;6.716;2023-02-15T23:50:33;7.30;99.90
12817;DHT22;6473;51.552;6.716;2023-02-15T23:52:59;7.20;99.90
12817;DHT22;6473;51.552;6.716;2023-02-15T23:55:33;7.20;99.90
12817;DHT22;6473;51.552;6.716;2023-02-15T23:58:03;7.20;99.90
